Time;durP1;ratioP1;P1;durP2;ratioP2;P2;SDS_P1;SDS_P2;PMS_P1;PMS_P2;Temp;Humidity;BMP_temperature;BMP_pressure;BME280_temperature;BME280_humidity;BME280_pressure;Samples;Min_cycle;Max_cycle;Signal;HPM_P1;HPM_P2
2021/08/17 00:00:44;;;;;;;5.90;1.90;;;14.20;99.90;;;;;;5028919;28;20025;-42
2021/08/17 00:03:10;;;;;;;5.15;1.70;;;14.20;99.90;;;;;;5028701;28;20021;-39
2021/08/17 00:05:37;;;;;;;7.18;2.03;;;14.10;99.90;;;;;;5029277;28;20049;-39
2021/08/17 00:08:03;;;;;;;8.15;2.35;;;14.10;99.90;;;;;;5028319;28;20096;-41
2021/08/17 00:10:29;;;;;;;9.00;2.05;;;14.10;99.90;;;;;;5028531;28;20548;-39
2021/08/17 00:12:55;;;;;;;8.85;2.40;;;14.00;99.90;;;;;;5027958;28;20381;-39
2021/08/17 00:15:20;;;;;;;6.18;2.20;;;14.00;99.90;;;;;;5028914;28;20024;-36
2021/08/17 00:17:46;;;;;;;7.78;2.60;;;13.90;99.90;;;;;;5027647;28;20029;-41
2021/08/17 00:20:13;;;;;;;5.32;2.25;;;14.00;99.90;;;;;;5029223;28;20079;-42
2021/08/17 00:22:41;;;;;;;7.80;2.63;;;13.90;99.90;;;;;;5028357;28;20029;-43
2021/08/17 00:25:09;;;;;;;7.25;2.65;;;13.80;99.90;;;;;;5028827;28;20101;-42
2021/08/17 00:27:35;;;;;;;10.13;2.90;;;13.80;99.90;;;;;;5028828;28;20512;-38
2021/08/17 00:30:00;;;;;;;9.20;2.35;;;13.80;99.90;;;;;;5027955;28;20038;-39
2021/08/17 00:32:26;;;;;;;5.68;2.22;;;13.80;99.90;;;;;;5028751;28;20374;-41
2021/08/17 00:34:52;;;;;;;6.32;2.10;;;13.80;99.90;;;;;;5028492;28;20492;-39
2021/08/17 00:37:20;;;;;;;6.85;2.20;;;13.80;99.90;;;;;;5028780;28;20018;-41
2021/08/17 00:39:46;;;;;;;8.13;2.85;;;13.80;99.90;;;;;;5029000;28;20116;-39
2021/08/17 00:42:12;;;;;;;8.15;2.60;;;13.70;99.90;;;;;;5028917;28;20438;-42
2021/08/17 00:44:37;;;;;;;6.30;2.50;;;13.70;99.90;;;;;;5027612;28;20420;-39
2021/08/17 00:47:06;;;;;;;7.53;2.53;;;13.70;99.90;;;;;;5028701;28;20107;-36
2021/08/17 00:49:34;;;;;;;8.82;2.45;;;13.70;99.90;;;;;;5028030;28;20036;-42
2021/08/17 00:52:07;;;;;;;6.97;2.20;;;13.70;99.90;;;;;;5027201;28;20030;-40
2021/08/17 00:54:40;;;;;;;9.73;2.53;;;13.70;99.90;;;;;;5028241;28;20017;-39
2021/08/17 00:57:06;;;;;;;8.05;2.63;;;13.70;99.90;;;;;;5027687;28;20037;-41
2021/08/17 00:59:34;;;;;;;10.02;2.63;;;13.60;99.90;;;;;;5027538;28;20543;-40
2021/08/17 01:02:03;;;;;;;6.38;2.60;;;13.70;99.90;;;;;;5028415;28;20021;-42
2021/08/17 01:04:29;;;;;;;6.55;2.40;;;13.60;99.90;;;;;;5027679;28;20022;-40
2021/08/17 01:06:55;;;;;;;5.88;2.28;;;13.60;99.90;;;;;;5027472;28;20030;-41
2021/08/17 01:09:20;;;;;;;8.40;2.45;;;13.60;99.90;;;;;;5027813;28;20031;-38
2021/08/17 01:11:47;;;;;;;5.78;2.20;;;13.60;99.90;;;;;;5030073;28;20448;-39
2021/08/17 01:14:14;;;;;;;5.97;2.47;;;13.50;99.90;;;;;;5031958;28;20061;-40
2021/08/17 01:16:41;;;;;;;7.35;2.53;;;13.50;99.90;;;;;;5031990;28;20022;-40
2021/08/17 01:19:08;;;;;;;6.55;2.35;;;13.50;99.90;;;;;;5031602;28;20448;-42
2021/08/17 01:21:34;;;;;;;7.53;2.55;;;13.50;99.90;;;;;;5031888;28;20044;-40
2021/08/17 01:24:00;;;;;;;5.57;2.33;;;13.50;99.90;;;;;;5032132;28;20026;-40
2021/08/17 01:26:26;;;;;;;8.90;2.53;;;13.50;99.90;;;;;;5030932;28;20388;-40
2021/08/17 01:28:52;;;;;;;9.43;2.55;;;13.50;99.90;;;;;;5031228;28;20504;-40
2021/08/17 01:31:17;;;;;;;7.47;2.78;;;13.50;99.90;;;;;;5031597;28;20076;-42
2021/08/17 01:33:43;;;;;;;6.53;2.42;;;13.50;99.90;;;;;;5031017;28;20047;-38
2021/08/17 01:36:08;;;;;;;5.70;2.50;;;13.50;99.90;;;;;;5031535;28;20079;-41
2021/08/17 01:38:47;;;;;;;6.68;2.40;;;13.50;99.90;;;;;;5031467;28;20021;-40
2021/08/17 01:41:14;;;;;;;4.20;2.17;;;13.40;99.90;;;;;;5030823;28;20017;-40
2021/08/17 01:43:40;;;;;;;6.10;2.38;;;13.40;99.90;;;;;;5031663;28;20032;-40
2021/08/17 01:46:06;;;;;;;8.55;2.30;;;13.40;99.90;;;;;;5031456;28;20026;-38
2021/08/17 01:48:32;;;;;;;6.00;2.13;;;13.40;99.90;;;;;;5031069;28;20025;-41
2021/08/17 01:50:59;;;;;;;6.57;2.33;;;13.40;99.90;;;;;;5030354;28;20037;-42
2021/08/17 01:53:29;;;;;;;7.90;2.25;;;13.30;99.90;;;;;;5031153;28;20398;-39
2021/08/17 01:55:56;;;;;;;7.55;2.80;;;13.30;99.90;;;;;;5030010;28;20496;-39
2021/08/17 01:58:26;;;;;;;7.07;2.67;;;13.30;99.90;;;;;;5031021;28;20453;-37
2021/08/17 02:00:52;;;;;;;7.05;2.63;;;13.30;99.90;;;;;;5030519;28;20683;-41
2021/08/17 02:03:17;;;;;;;8.48;2.95;;;13.30;99.90;;;;;;5031114;28;20025;-40
2021/08/17 02:05:43;;;;;;;8.32;2.45;;;13.30;99.90;;;;;;5031514;28;20013;-40
2021/08/17 02:08:09;;;;;;;9.20;3.25;;;13.20;99.90;;;;;;5030203;28;20021;-39
2021/08/17 02:10:36;;;;;;;8.48;2.83;;;13.20;99.90;;;;;;5030759;28;20037;-42
2021/08/17 02:13:03;;;;;;;6.25;2.70;;;13.20;99.90;;;;;;5029957;28;20563;-38
2021/08/17 02:15:31;;;;;;;6.50;2.22;;;13.20;99.90;;;;;;5010808;28;20057;-40
2021/08/17 02:17:57;;;;;;;6.97;3.00;;;13.20;99.90;;;;;;5024550;28;20040;-41
2021/08/17 02:20:22;;;;;;;5.85;2.20;;;13.20;99.90;;;;;;5031341;28;20560;-40
2021/08/17 02:22:48;;;;;;;5.43;2.80;;;13.20;99.90;;;;;;5029350;28;20032;-37
2021/08/17 02:25:13;;;;;;;6.75;2.33;;;13.20;99.90;;;;;;5031415;28;20049;-37
2021/08/17 02:27:40;;;;;;;6.45;2.30;;;13.20;99.90;;;;;;5030540;28;20120;-39
2021/08/17 02:30:06;;;;;;;5.53;2.25;;;13.20;99.90;;;;;;5030765;28;20099;-42
2021/08/17 02:32:32;;;;;;;8.00;2.70;;;13.20;99.90;;;;;;5031368;28;20481;-40
2021/08/17 02:34:58;;;;;;;7.30;2.88;;;13.10;99.90;;;;;;5030772;28;20043;-36
2021/08/17 02:37:24;;;;;;;5.55;2.60;;;13.10;99.90;;;;;;5030174;28;20018;-36
2021/08/17 02:39:50;;;;;;;6.65;2.40;;;13.10;99.90;;;;;;5030767;28;20415;-35
2021/08/17 02:42:16;;;;;;;5.03;2.53;;;13.10;99.90;;;;;;5031279;28;20067;-40
2021/08/17 02:44:41;;;;;;;4.65;2.22;;;13.10;99.90;;;;;;5026555;28;20028;-40
2021/08/17 02:47:07;;;;;;;8.00;2.80;;;13.10;99.90;;;;;;5030992;28;20469;-40
2021/08/17 02:49:33;;;;;;;7.32;2.30;;;13.00;99.90;;;;;;5030716;28;20040;-42
2021/08/17 02:52:04;;;;;;;8.40;2.33;;;13.10;99.90;;;;;;5029767;28;20021;-42
2021/08/17 02:54:35;;;;;;;7.63;2.60;;;13.00;99.90;;;;;;5030318;28;20564;-39
2021/08/17 02:57:02;;;;;;;5.63;2.35;;;13.00;99.90;;;;;;5030948;28;20108;-40
2021/08/17 02:59:27;;;;;;;6.40;2.55;;;13.00;99.90;;;;;;5030096;28;20132;-39
2021/08/17 03:01:53;;;;;;;4.25;2.22;;;13.00;99.90;;;;;;5030295;28;20929;-42
2021/08/17 03:04:18;;;;;;;5.88;2.60;;;13.00;99.90;;;;;;5030743;28;20045;-41
2021/08/17 03:06:44;;;;;;;6.72;3.00;;;13.00;99.90;;;;;;5029098;28;20021;-41
2021/08/17 03:09:09;;;;;;;7.82;2.80;;;13.00;99.90;;;;;;5029711;28;20508;-40
2021/08/17 03:11:35;;;;;;;5.53;2.65;;;13.10;99.90;;;;;;5029311;28;20065;-41
2021/08/17 03:14:00;;;;;;;7.47;2.78;;;13.00;99.90;;;;;;5029204;28;20033;-42
2021/08/17 03:16:26;;;;;;;5.25;2.40;;;13.00;99.90;;;;;;5029837;28;20455;-40
2021/08/17 03:18:52;;;;;;;7.63;2.78;;;13.00;99.90;;;;;;5028313;28;20018;-39
2021/08/17 03:21:17;;;;;;;6.57;2.78;;;13.10;99.90;;;;;;5029982;28;20549;-43
2021/08/17 03:23:43;;;;;;;8.15;2.80;;;13.00;99.90;;;;;;5029250;28;20504;-39
2021/08/17 03:26:10;;;;;;;6.60;2.92;;;13.00;99.90;;;;;;5017973;28;20060;-42
2021/08/17 03:28:36;;;;;;;5.90;2.60;;;13.00;99.90;;;;;;5029483;28;20048;-39
2021/08/17 03:31:01;;;;;;;6.03;2.60;;;13.00;99.90;;;;;;5029210;28;20392;-40
2021/08/17 03:33:27;;;;;;;6.65;2.67;;;13.00;99.90;;;;;;5028171;28;20026;-40
2021/08/17 03:35:53;;;;;;;6.60;2.20;;;13.00;99.90;;;;;;5028634;28;20029;-42
2021/08/17 03:38:19;;;;;;;5.85;2.70;;;13.00;99.90;;;;;;5029749;28;20013;-41
2021/08/17 03:40:45;;;;;;;5.97;2.60;;;13.00;99.90;;;;;;5027530;28;20104;-41
2021/08/17 03:43:11;;;;;;;7.13;2.90;;;13.00;99.90;;;;;;5029236;28;20104;-42
2021/08/17 03:45:37;;;;;;;6.75;2.78;;;13.00;99.90;;;;;;5028689;28;20045;-41
2021/08/17 03:48:04;;;;;;;5.65;2.78;;;13.00;99.90;;;;;;5028674;28;20362;-38
2021/08/17 03:50:29;;;;;;;6.22;2.83;;;13.10;99.90;;;;;;5028885;28;20120;-41
2021/08/17 03:52:55;;;;;;;5.82;2.47;;;13.00;99.90;;;;;;5028668;28;20125;-39
2021/08/17 03:55:21;;;;;;;8.30;2.95;;;13.10;99.90;;;;;;5028508;28;20029;-40
2021/08/17 03:57:48;;;;;;;5.57;2.50;;;13.20;99.90;;;;;;5028243;28;20025;-41
2021/08/17 04:00:16;;;;;;;7.82;2.75;;;13.20;99.90;;;;;;5029355;28;20018;-41
2021/08/17 04:02:42;;;;;;;5.55;2.40;;;13.20;99.90;;;;;;5027791;28;20033;-40
2021/08/17 04:05:08;;;;;;;4.53;2.33;;;13.20;99.90;;;;;;5028503;28;20044;-42
2021/08/17 04:07:34;;;;;;;3.55;2.65;;;13.30;99.90;;;;;;5028932;28;20148;-39
2021/08/17 04:10:00;;;;;;;6.45;3.17;;;13.30;99.90;;;;;;5028261;28;20121;-38
2021/08/17 04:12:25;;;;;;;3.70;2.10;;;13.30;99.90;;;;;;5029125;28;20513;-38
2021/08/17 04:14:51;;;;;;;5.18;2.83;;;13.40;99.90;;;;;;5027073;28;20030;-36
2021/08/17 04:17:16;;;;;;;5.03;2.90;;;13.40;99.90;;;;;;5028658;28;20025;-41
2021/08/17 04:19:43;;;;;;;5.95;2.92;;;13.40;99.90;;;;;;5028551;28;20473;-40
2021/08/17 04:22:09;;;;;;;4.38;2.92;;;13.40;99.90;;;;;;5027839;28;20022;-36
2021/08/17 04:24:35;;;;;;;4.82;3.45;;;13.40;99.90;;;;;;5028842;28;20053;-41
2021/08/17 04:27:02;;;;;;;6.35;3.25;;;13.50;99.90;;;;;;5028893;28;20434;-40
2021/08/17 04:29:28;;;;;;;7.97;3.53;;;13.50;99.90;;;;;;5028147;28;20036;-40
2021/08/17 04:31:53;;;;;;;6.78;3.22;;;13.50;99.90;;;;;;5027662;28;20685;-43
2021/08/17 04:34:19;;;;;;;7.88;4.25;;;13.60;99.90;;;;;;5028257;28;20507;-40
2021/08/17 04:36:48;;;;;;;7.60;3.47;;;13.60;99.90;;;;;;5027628;28;20031;-39
2021/08/17 04:39:15;;;;;;;6.93;3.42;;;13.60;99.90;;;;;;5028940;28;20033;-40
2021/08/17 04:41:41;;;;;;;7.32;4.07;;;13.60;99.90;;;;;;5028096;28;20021;-41
2021/08/17 04:44:07;;;;;;;7.45;3.88;;;13.70;99.90;;;;;;5017268;28;20454;-39
2021/08/17 04:46:33;;;;;;;8.05;3.78;;;13.70;99.90;;;;;;5032245;28;20033;-41
2021/08/17 04:48:58;;;;;;;10.93;4.35;;;13.70;99.90;;;;;;5032305;28;20029;-40
2021/08/17 04:51:24;;;;;;;8.13;3.67;;;13.70;99.90;;;;;;5032330;28;20037;-38
2021/08/17 04:53:50;;;;;;;9.30;3.95;;;13.70;99.90;;;;;;5031643;28;20110;-40
2021/08/17 04:56:15;;;;;;;8.23;3.35;;;13.80;99.90;;;;;;5032831;28;20071;-37
2021/08/17 04:58:41;;;;;;;7.15;3.85;;;13.80;99.90;;;;;;5030935;28;20026;-42
2021/08/17 05:01:06;;;;;;;7.40;4.15;;;13.90;99.90;;;;;;5032269;28;20103;-38
2021/08/17 05:03:32;;;;;;;6.60;3.88;;;13.90;99.90;;;;;;5030758;28;20022;-41
2021/08/17 05:05:57;;;;;;;6.25;3.67;;;13.90;99.90;;;;;;5030853;28;20024;-42
2021/08/17 05:08:23;;;;;;;3.83;3.17;;;14.00;99.90;;;;;;5032117;28;20037;-40
2021/08/17 05:10:49;;;;;;;7.40;4.03;;;14.00;99.90;;;;;;5031666;28;20393;-40
2021/08/17 05:13:15;;;;;;;11.02;4.40;;;14.00;99.90;;;;;;5031596;28;20115;-40
2021/08/17 05:15:41;;;;;;;10.45;4.78;;;14.00;99.90;;;;;;5031210;28;20076;-39
2021/08/17 05:18:06;;;;;;;10.93;5.43;;;14.00;99.90;;;;;;5031610;28;20018;-37
2021/08/17 05:20:32;;;;;;;11.52;5.70;;;14.00;99.90;;;;;;5032027;28;20029;-40
2021/08/17 05:22:58;;;;;;;9.63;5.03;;;14.10;99.90;;;;;;5031049;28;20025;-41
2021/08/17 05:25:24;;;;;;;11.13;5.28;;;14.00;99.90;;;;;;5031866;28;20039;-42
2021/08/17 05:27:50;;;;;;;9.25;5.70;;;14.10;99.90;;;;;;5031068;28;20021;-41
2021/08/17 05:30:19;;;;;;;10.98;6.43;;;14.10;99.90;;;;;;5031527;28;20026;-40
2021/08/17 05:32:45;;;;;;;14.50;6.47;;;14.00;99.90;;;;;;5031051;28;20071;-41
2021/08/17 05:35:11;;;;;;;14.10;6.40;;;14.10;99.90;;;;;;5031979;28;20410;-44
2021/08/17 05:37:36;;;;;;;12.40;6.85;;;14.20;99.90;;;;;;5032046;28;20118;-38
2021/08/17 05:40:04;;;;;;;8.73;5.75;;;14.20;99.90;;;;;;5030822;28;20064;-37
2021/08/17 05:42:30;;;;;;;8.95;5.63;;;14.20;99.90;;;;;;5031523;28;20022;-38
2021/08/17 05:44:55;;;;;;;10.90;6.18;;;14.30;99.90;;;;;;5031762;28;20113;-38
2021/08/17 05:47:21;;;;;;;11.60;6.10;;;14.30;99.90;;;;;;5031315;28;20045;-40
2021/08/17 05:49:47;;;;;;;13.73;7.78;;;14.40;99.90;;;;;;5029497;28;20485;-40
2021/08/17 05:52:14;;;;;;;15.48;8.15;;;14.50;99.90;;;;;;5031434;28;20105;-37
2021/08/17 05:54:41;;;;;;;17.40;9.15;;;14.50;99.90;;;;;;5027664;28;20013;-37
2021/08/17 05:57:07;;;;;;;16.38;9.93;;;14.60;99.90;;;;;;5028050;28;20026;-40
2021/08/17 05:59:33;;;;;;;14.02;8.95;;;14.70;99.90;;;;;;5029632;28;20112;-39
2021/08/17 06:02:01;;;;;;;18.13;9.80;;;14.80;99.90;;;;;;5029455;28;20033;-38
2021/08/17 06:04:27;;;;;;;18.92;10.52;;;14.80;99.90;;;;;;5030158;28;20022;-38
2021/08/17 06:06:54;;;;;;;21.02;11.60;;;14.90;99.90;;;;;;5029478;28;20032;-39
2021/08/17 06:09:20;;;;;;;24.20;13.15;;;15.00;99.90;;;;;;5029768;28;20022;-41
2021/08/17 06:11:57;;;;;;;23.38;13.20;;;15.00;99.90;;;;;;5029128;28;20465;-37
2021/08/17 06:14:24;;;;;;;19.30;11.38;;;15.00;99.90;;;;;;5029704;28;20033;-38
2021/08/17 06:16:50;;;;;;;27.38;14.18;;;15.10;99.90;;;;;;5028944;28;20013;-40
2021/08/17 06:19:15;;;;;;;22.50;13.25;;;15.10;99.90;;;;;;5029700;28;20526;-37
2021/08/17 06:21:41;;;;;;;23.35;12.10;;;15.20;99.90;;;;;;5029572;28;20425;-37
2021/08/17 06:24:07;;;;;;;18.42;11.77;;;15.20;99.90;;;;;;5030414;28;20421;-41
2021/08/17 06:26:33;;;;;;;22.65;12.60;;;15.40;99.90;;;;;;5030342;28;20030;-38
2021/08/17 06:28:59;;;;;;;23.52;13.32;;;15.50;99.90;;;;;;5030102;28;20026;-36
2021/08/17 06:31:25;;;;;;;24.45;13.93;;;15.60;99.90;;;;;;5030152;28;20132;-41
2021/08/17 06:33:56;;;;;;;29.60;15.43;;;15.70;99.90;;;;;;5029428;28;20014;-41
2021/08/17 06:36:25;;;;;;;26.60;15.10;;;15.70;99.90;;;;;;5030221;28;20124;-39
2021/08/17 06:38:51;;;;;;;22.80;12.63;;;15.80;99.90;;;;;;5029721;28;20592;-37
2021/08/17 06:41:17;;;;;;;25.88;13.98;;;15.90;99.90;;;;;;5030422;28;20044;-40
2021/08/17 06:43:43;;;;;;;26.42;14.80;;;16.00;99.90;;;;;;5028784;28;20021;-41
2021/08/17 06:46:09;;;;;;;22.75;13.57;;;16.00;99.90;;;;;;5030348;28;20017;-39
2021/08/17 06:48:35;;;;;;;29.15;16.05;;;16.10;99.90;;;;;;5030189;28;20061;-39
2021/08/17 06:51:01;;;;;;;28.65;15.63;;;16.20;99.90;;;;;;5028702;28;20113;-38
2021/08/17 06:53:27;;;;;;;24.95;14.40;;;16.30;99.90;;;;;;5029952;28;20431;-38
2021/08/17 06:55:52;;;;;;;22.40;12.07;;;16.30;99.90;;;;;;5028917;28;20018;-39
2021/08/17 06:58:18;;;;;;;24.35;13.70;;;16.40;99.90;;;;;;5029625;28;20018;-40
2021/08/17 07:00:46;;;;;;;27.92;14.82;;;16.50;99.90;;;;;;5029889;28;20030;-41
2021/08/17 07:03:12;;;;;;;27.23;15.07;;;16.50;99.90;;;;;;5033329;28;20480;-39
2021/08/17 07:05:42;;;;;;;28.55;15.65;;;16.50;99.90;;;;;;5036597;28;20108;-39
2021/08/17 07:08:09;;;;;;;24.02;13.80;;;16.50;99.90;;;;;;5031753;28;20108;-37
2021/08/17 07:10:36;;;;;;;27.33;15.07;;;16.50;99.90;;;;;;5033645;28;20037;-41
2021/08/17 07:13:02;;;;;;;23.05;13.65;;;16.50;99.90;;;;;;5032705;28;20041;-36
2021/08/17 07:15:27;;;;;;;29.45;16.27;;;16.40;99.90;;;;;;5029758;28;20124;-40
2021/08/17 07:17:53;;;;;;;28.15;14.77;;;16.50;99.90;;;;;;5028454;28;20028;-39
2021/08/17 07:20:20;;;;;;;28.02;16.08;;;16.50;99.90;;;;;;5029647;28;20025;-41
2021/08/17 07:22:45;;;;;;;27.58;16.33;;;16.50;99.90;;;;;;5027443;28;20021;-40
2021/08/17 07:25:12;;;;;;;28.67;14.90;;;16.60;99.90;;;;;;5029447;28;20040;-40
2021/08/17 07:27:38;;;;;;;23.83;13.65;;;16.60;99.90;;;;;;5029330;28;20033;-40
2021/08/17 07:30:06;;;;;;;26.25;14.35;;;16.70;99.90;;;;;;5028933;28;20034;-39
2021/08/17 07:32:31;;;;;;;27.63;15.70;;;16.70;99.90;;;;;;5028787;28;20021;-41
2021/08/17 07:34:57;;;;;;;25.13;14.02;;;16.80;99.90;;;;;;5029216;28;20067;-40
2021/08/17 07:37:25;;;;;;;29.45;15.88;;;16.80;99.90;;;;;;5029187;28;20017;-42
2021/08/17 07:39:51;;;;;;;25.52;15.45;;;16.90;99.90;;;;;;5028403;28;20056;-39
2021/08/17 07:42:17;;;;;;;25.65;15.13;;;17.00;99.90;;;;;;5029834;28;20045;-39
2021/08/17 07:44:42;;;;;;;27.55;15.73;;;17.00;99.90;;;;;;5028095;28;20018;-39
2021/08/17 07:47:08;;;;;;;30.35;16.65;;;17.10;99.90;;;;;;5028474;28;20030;-42
2021/08/17 07:49:36;;;;;;;25.15;13.90;;;17.10;99.90;;;;;;5028598;28;20037;-41
2021/08/17 07:52:02;;;;;;;26.42;15.18;;;17.20;99.90;;;;;;5028732;28;20351;-39
2021/08/17 07:54:28;;;;;;;25.05;13.45;;;17.30;99.90;;;;;;5028260;28;20020;-39
2021/08/17 07:56:55;;;;;;;24.88;13.85;;;17.40;99.90;;;;;;5028314;28;20483;-41
2021/08/17 07:59:21;;;;;;;23.33;13.40;;;17.40;99.90;;;;;;5028548;28;20024;-41
2021/08/17 08:01:50;;;;;;;21.92;12.00;;;17.60;99.90;;;;;;5027971;28;20022;-36
2021/08/17 08:04:15;;;;;;;23.42;12.13;;;17.70;99.90;;;;;;5028592;28;20068;-43
2021/08/17 08:06:41;;;;;;;19.95;11.60;;;17.80;99.90;;;;;;5024734;28;20079;-37
2021/08/17 08:09:07;;;;;;;22.83;12.48;;;17.80;99.90;;;;;;5028199;28;20028;-43
2021/08/17 08:11:33;;;;;;;21.52;12.13;;;17.70;99.90;;;;;;5029124;28;20037;-41
2021/08/17 08:13:59;;;;;;;23.70;13.80;;;17.70;99.90;;;;;;5027635;28;20087;-43
2021/08/17 08:16:25;;;;;;;22.90;12.57;;;17.70;99.90;;;;;;5028110;28;20037;-37
2021/08/17 08:18:51;;;;;;;21.67;12.32;;;17.60;99.90;;;;;;5027612;28;20546;-41
2021/08/17 08:21:16;;;;;;;23.95;12.52;;;17.60;99.90;;;;;;5033637;28;20137;-39
2021/08/17 08:23:42;;;;;;;21.95;11.88;;;17.70;99.90;;;;;;5039290;28;20017;-41
2021/08/17 08:26:09;;;;;;;23.90;11.20;;;17.60;99.90;;;;;;5028390;28;20018;-40
2021/08/17 08:28:34;;;;;;;23.55;12.48;;;17.70;99.90;;;;;;5028379;28;20385;-38
2021/08/17 08:31:03;;;;;;;20.08;11.55;;;17.70;99.90;;;;;;5028006;28;20030;-41
2021/08/17 08:33:29;;;;;;;20.08;10.98;;;17.70;99.90;;;;;;5028512;28;20101;-41
2021/08/17 08:35:54;;;;;;;16.30;9.00;;;17.70;99.90;;;;;;5027107;28;20537;-42
2021/08/17 08:38:20;;;;;;;18.35;10.60;;;17.70;99.90;;;;;;5029291;28;20543;-41
2021/08/17 08:40:49;;;;;;;18.25;10.18;;;17.80;99.90;;;;;;5028382;28;20037;-40
2021/08/17 08:43:18;;;;;;;16.67;10.88;;;17.80;99.90;;;;;;5028623;28;20026;-39
2021/08/17 08:45:46;;;;;;;18.30;9.90;;;17.80;99.90;;;;;;5028297;28;20421;-42
2021/08/17 08:48:13;;;;;;;19.17;10.70;;;17.70;99.90;;;;;;5028858;28;20021;-41
2021/08/17 08:50:41;;;;;;;17.73;9.93;;;17.70;99.90;;;;;;5027736;28;20384;-41
2021/08/17 08:53:10;;;;;;;18.75;10.23;;;17.60;99.90;;;;;;5028330;28;20482;-42
2021/08/17 08:55:36;;;;;;;18.05;9.77;;;17.60;99.90;;;;;;5027842;28;20030;-39
2021/08/17 08:58:01;;;;;;;17.95;9.80;;;17.60;99.90;;;;;;5027208;28;20021;-39
2021/08/17 09:00:27;;;;;;;21.27;10.18;;;17.60;99.90;;;;;;5028297;28;20053;-41
2021/08/17 09:02:53;;;;;;;17.65;10.02;;;17.50;99.90;;;;;;5027904;28;20462;-40
2021/08/17 09:05:21;;;;;;;19.23;10.85;;;17.50;99.90;;;;;;5028300;28;20148;-38
2021/08/17 09:07:47;;;;;;;21.15;11.07;;;17.50;99.90;;;;;;5028321;28;20017;-41
2021/08/17 09:10:17;;;;;;;19.52;10.88;;;17.40;99.90;;;;;;5027774;28;20060;-40
2021/08/17 09:12:48;;;;;;;18.67;9.95;;;17.40;99.90;;;;;;5024544;28;20416;-39
2021/08/17 09:15:21;;;;;;;18.63;10.30;;;17.40;99.90;;;;;;5036402;28;20025;-38
2021/08/17 09:18:03;;;;;;;17.73;10.45;;;17.40;99.90;;;;;;5037924;28;20029;-40
2021/08/17 09:20:48;;;;;;;21.00;10.33;;;17.40;99.90;;;;;;5038696;28;20476;-34
2021/08/17 09:23:24;;;;;;;15.43;8.90;;;17.40;99.90;;;;;;5041274;28;20017;-40
2021/08/17 09:25:50;;;;;;;19.13;9.88;;;17.50;99.90;;;;;;5032907;28;20420;-38
2021/08/17 09:28:31;;;;;;;19.90;10.60;;;17.60;99.90;;;;;;5028697;28;20022;-35
2021/08/17 09:30:57;;;;;;;16.73;10.10;;;17.70;99.90;;;;;;5038530;28;20068;-40
2021/08/17 09:33:34;;;;;;;16.60;9.75;;;17.70;99.90;;;;;;5031317;28;20116;-41
2021/08/17 09:36:00;;;;;;;21.77;10.85;;;17.80;99.90;;;;;;5030481;28;20070;-40
2021/08/17 09:38:30;;;;;;;14.90;9.23;;;17.80;99.90;;;;;;5030859;28;20083;-40
2021/08/17 09:40:56;;;;;;;16.75;9.93;;;17.90;99.90;;;;;;5030305;28;20025;-36
2021/08/17 09:43:23;;;;;;;15.93;9.30;;;18.00;99.90;;;;;;5031518;28;20025;-41
2021/08/17 09:45:49;;;;;;;15.95;8.50;;;18.10;99.90;;;;;;5028819;28;20481;-38
2021/08/17 09:48:27;;;;;;;15.68;9.07;;;18.20;99.90;;;;;;5028977;28;20036;-38
2021/08/17 09:50:52;;;;;;;19.77;9.80;;;18.40;99.90;;;;;;5026017;28;20168;-39
2021/08/17 09:53:21;;;;;;;14.48;10.00;;;18.50;99.90;;;;;;5028303;28;20117;-35
2021/08/17 09:55:46;;;;;;;13.77;8.38;;;18.60;99.90;;;;;;5028339;28;20500;-40
2021/08/17 09:58:20;;;;;;;11.93;8.20;;;18.60;99.90;;;;;;5028553;28;20025;-41
2021/08/17 10:00:47;;;;;;;11.38;8.07;;;18.60;99.90;;;;;;5027996;28;20028;-40
2021/08/17 10:03:18;;;;;;;12.57;8.57;;;18.60;99.90;;;;;;5030480;28;20020;-38
2021/08/17 10:05:44;;;;;;;15.55;8.85;;;18.50;99.90;;;;;;5030794;28;20022;-41
2021/08/17 10:08:12;;;;;;;11.75;7.78;;;18.50;99.90;;;;;;5029615;28;20643;-40
2021/08/17 10:10:41;;;;;;;12.95;8.27;;;18.40;99.90;;;;;;5030167;28;20776;-37
2021/08/17 10:13:24;;;;;;;12.10;7.28;;;18.40;99.90;;;;;;5030112;28;20041;-42
2021/08/17 10:15:51;;;;;;;13.45;7.65;;;18.40;99.90;;;;;;5029494;28;20025;-39
2021/08/17 10:18:40;;;;;;;10.25;6.65;;;18.40;99.90;;;;;;5030390;28;20029;-39
2021/08/17 10:21:06;;;;;;;12.18;6.97;;;18.40;99.90;;;;;;5028400;28;20432;-42
2021/08/17 10:23:34;;;;;;;14.63;7.60;;;18.40;99.90;;;;;;5034990;28;20092;-38
2021/08/17 10:26:01;;;;;;;14.27;6.93;;;18.50;99.90;;;;;;5030219;28;20024;-37
2021/08/17 10:28:41;;;;;;;12.07;7.93;;;18.40;99.90;;;;;;5036039;28;20048;-39
2021/08/17 10:31:12;;;;;;;10.65;7.07;;;18.40;99.90;;;;;;5028501;28;20556;-42
2021/08/17 10:33:42;;;;;;;11.13;7.20;;;18.50;99.90;;;;;;5033095;28;20033;-38
2021/08/17 10:36:10;;;;;;;11.02;6.93;;;18.60;99.90;;;;;;5029242;28;20026;-41
2021/08/17 10:38:44;;;;;;;10.77;6.53;;;18.60;99.90;;;;;;5030573;28;20021;-40
2021/08/17 10:41:11;;;;;;;10.02;5.93;;;18.50;99.90;;;;;;5020481;28;20025;-38
2021/08/17 10:43:36;;;;;;;9.30;5.85;;;18.40;99.90;;;;;;5029448;28;20022;-39
2021/08/17 10:46:06;;;;;;;9.70;6.38;;;18.40;99.90;;;;;;5028583;28;20144;-40
2021/08/17 10:48:48;;;;;;;10.50;6.10;;;18.40;99.90;;;;;;5030246;28;20029;-39
2021/08/17 10:51:20;;;;;;;9.25;5.53;;;18.50;99.90;;;;;;5030063;28;20477;-39
2021/08/17 10:53:51;;;;;;;11.57;5.85;;;18.50;99.90;;;;;;5030309;28;20025;-39
2021/08/17 10:56:22;;;;;;;9.48;6.18;;;18.60;99.90;;;;;;5029670;28;20504;-41
2021/08/17 10:58:56;;;;;;;10.32;5.90;;;18.60;99.80;;;;;;5029800;28;20026;-40
2021/08/17 11:01:31;;;;;;;11.90;6.07;;;18.70;99.90;;;;;;5027446;28;20480;-39
2021/08/17 11:04:05;;;;;;;8.05;4.90;;;18.70;99.70;;;;;;5029512;28;20052;-42
2021/08/17 11:06:39;;;;;;;9.88;5.40;;;18.70;99.40;;;;;;5027292;28;20025;-41
2021/08/17 11:09:07;;;;;;;8.15;5.03;;;18.70;99.40;;;;;;5029997;28;20053;-40
2021/08/17 11:11:33;;;;;;;7.88;4.90;;;18.80;99.50;;;;;;5029133;28;20034;-41
2021/08/17 11:14:12;;;;;;;7.50;5.10;;;18.80;99.50;;;;;;5029145;28;20485;-40
2021/08/17 11:16:43;;;;;;;6.75;4.70;;;18.80;99.60;;;;;;5029834;28;20048;-38
2021/08/17 11:19:08;;;;;;;8.93;5.03;;;18.70;99.50;;;;;;5029584;28;20076;-41
2021/08/17 11:21:38;;;;;;;10.25;4.93;;;18.60;99.60;;;;;;5029555;28;20056;-42
2021/08/17 11:24:16;;;;;;;8.65;5.03;;;18.50;99.60;;;;;;5028889;28;20025;-37
2021/08/17 11:26:50;;;;;;;8.27;4.80;;;18.40;99.80;;;;;;5029663;28;20092;-41
2021/08/17 11:29:26;;;;;;;9.05;4.82;;;18.30;99.90;;;;;;5029871;28;20026;-38
2021/08/17 11:31:53;;;;;;;8.85;4.30;;;18.20;99.90;;;;;;5028171;28;20044;-36
2021/08/17 11:34:30;;;;;;;6.18;4.05;;;18.20;99.90;;;;;;5030070;28;20033;-39
2021/08/17 11:37:03;;;;;;;8.20;4.47;;;18.10;99.90;;;;;;5028551;28;20568;-39
2021/08/17 11:39:54;;;;;;;6.95;4.68;;;18.00;99.90;;;;;;5029435;28;20029;-40
2021/08/17 11:42:23;;;;;;;6.45;3.85;;;17.90;99.90;;;;;;5029075;28;20045;-41
2021/08/17 11:44:51;;;;;;;9.00;4.05;;;17.70;99.90;;;;;;5029288;28;20056;-36
2021/08/17 11:47:22;;;;;;;8.20;3.83;;;17.60;99.90;;;;;;5029282;28;20342;-38
2021/08/17 11:49:53;;;;;;;5.65;3.88;;;17.50;99.90;;;;;;5029131;28;20362;-42
2021/08/17 11:52:21;;;;;;;8.90;4.03;;;17.40;99.90;;;;;;5036507;28;20119;-39
2021/08/17 11:54:54;;;;;;;6.88;4.07;;;17.40;99.90;;;;;;5041030;28;20036;-43
2021/08/17 11:57:28;;;;;;;4.53;3.70;;;17.30;99.90;;;;;;5032245;28;20029;-39
2021/08/17 11:59:55;;;;;;;8.45;4.43;;;17.10;99.90;;;;;;5027192;28;20155;-40
2021/08/17 12:02:28;;;;;;;7.28;4.38;;;16.90;99.90;;;;;;5027578;28;20036;-39
2021/08/17 12:04:56;;;;;;;7.97;3.60;;;16.80;99.90;;;;;;5026864;28;20489;-38
2021/08/17 12:07:24;;;;;;;5.80;3.75;;;16.70;99.90;;;;;;5027742;28;20021;-41
2021/08/17 12:09:49;;;;;;;5.75;3.70;;;16.70;99.90;;;;;;5028049;28;20052;-43
2021/08/17 12:12:18;;;;;;;7.63;5.07;;;16.70;99.90;;;;;;5028104;28;20025;-41
2021/08/17 12:14:44;;;;;;;7.40;4.25;;;16.60;99.90;;;;;;5028368;28;20034;-39
2021/08/17 12:17:11;;;;;;;5.93;3.90;;;16.50;99.90;;;;;;5029603;28;20082;-42
2021/08/17 12:19:46;;;;;;;7.55;3.70;;;16.50;99.90;;;;;;5034440;28;20029;-40
2021/08/17 12:22:22;;;;;;;8.35;4.72;;;16.40;99.90;;;;;;5036808;28;20075;-39
2021/08/17 12:24:52;;;;;;;7.20;4.15;;;16.20;99.90;;;;;;5028463;28;20396;-43
2021/08/17 12:27:24;;;;;;;6.88;4.70;;;16.20;99.90;;;;;;5029019;28;20024;-38
2021/08/17 12:29:50;;;;;;;7.55;4.82;;;16.10;99.90;;;;;;5028751;28;20037;-42
2021/08/17 12:32:20;;;;;;;5.35;4.47;;;16.00;99.90;;;;;;5029143;28;20021;-41
2021/08/17 12:34:49;;;;;;;10.15;5.85;;;15.90;99.90;;;;;;5028019;28;20021;-41
2021/08/17 12:37:44;;;;;;;9.55;4.72;;;15.90;99.90;;;;;;5028867;28;20432;-40
2021/08/17 12:40:12;;;;;;;6.63;4.90;;;15.80;99.90;;;;;;5022953;28;20088;-43
2021/08/17 12:42:42;;;;;;;7.53;5.25;;;15.70;99.90;;;;;;5027988;28;20032;-41